Time;durP1;ratioP1;P1;durP2;ratioP2;P2;SDS_P1;SDS_P2;PMS_P1;PMS_P2;Temp;Humidity;BMP_temperature;BMP_pressure;BME280_temperature;BME280_humidity;BME280_pressure;Samples;Min_cycle;Max_cycle;Signal;HPM_P1;HPM_P2
2021/12/12 00:02:20;;;;;;;12.90;6.03;;;-2.10;1.00;196.50;224877.00;;;;4939107;29;20300;-81
2021/12/12 00:04:51;;;;;;;14.00;6.57;;;-2.10;1.00;196.50;224877.00;;;;4939159;29;20194;-83
2021/12/12 00:07:29;;;;;;;14.87;6.20;;;-2.10;1.00;196.50;224877.00;;;;4939308;29;20707;-81
2021/12/12 00:10:04;;;;;;;10.97;5.47;;;-2.00;1.00;196.50;224877.00;;;;4955258;28;20226;-81
2021/12/12 00:12:43;;;;;;;12.57;6.60;;;-2.00;1.00;196.50;224877.00;;;;4939596;29;20218;-81
2021/12/12 00:15:13;;;;;;;17.43;6.67;;;-1.90;1.00;196.50;224877.00;;;;4939129;29;20273;-80
2021/12/12 00:17:40;;;;;;;15.23;7.17;;;-1.90;1.00;196.50;224877.00;;;;4938683;29;20233;-81
2021/12/12 00:20:13;;;;;;;12.97;5.93;;;-2.00;1.00;196.50;224877.00;;;;4938574;29;20670;-80
2021/12/12 00:22:41;;;;;;;11.77;5.57;;;-2.10;1.00;196.50;224877.00;;;;4939371;29;20757;-80
2021/12/12 00:25:10;;;;;;;10.57;5.87;;;-2.20;1.00;196.50;224877.00;;;;4939143;29;20192;-83
2021/12/12 00:27:38;;;;;;;12.70;7.13;;;-2.20;1.00;196.50;224877.00;;;;4923179;29;20195;-80
2021/12/12 00:30:09;;;;;;;9.73;6.30;;;-2.20;1.00;196.50;224877.00;;;;4955553;29;20638;-81
2021/12/12 00:32:39;;;;;;;17.43;7.70;;;-2.20;7.60;196.50;224877.00;;;;4938836;29;20191;-81
2021/12/12 00:35:13;;;;;;;16.80;6.40;;;-2.10;16.70;196.50;224877.00;;;;4954211;28;20222;-80
2021/12/12 00:37:41;;;;;;;19.63;7.57;;;-2.10;23.80;196.50;224877.00;;;;4922437;29;20302;-83
2021/12/12 00:40:30;;;;;;;14.97;7.50;;;-2.10;36.80;196.50;224877.00;;;;4955970;28;20662;-81
2021/12/12 00:43:05;;;;;;;16.67;8.53;;;-2.00;53.60;196.50;224877.00;;;;4919658;29;20196;-83
2021/12/12 00:45:33;;;;;;;17.60;7.93;;;-1.90;78.90;196.50;224877.00;;;;4920374;29;20258;-81
2021/12/12 00:48:00;;;;;;;17.93;8.13;;;-1.80;96.60;196.50;224877.00;;;;4938635;28;20220;-81
2021/12/12 00:50:37;;;;;;;16.23;6.40;;;-1.80;99.90;196.50;224877.00;;;;4937952;29;20250;-81
2021/12/12 00:53:09;;;;;;;11.83;4.60;;;-1.70;99.90;196.50;224877.00;;;;4923270;29;20195;-81
2021/12/12 00:55:44;;;;;;;10.07;4.40;;;-1.60;99.90;196.50;224877.00;;;;4938668;29;20199;-81
2021/12/12 00:58:15;;;;;;;10.57;5.17;;;-1.50;99.90;196.50;224877.00;;;;4938559;28;20207;-82
2021/12/12 01:00:54;;;;;;;14.13;5.17;;;-1.50;99.90;196.50;224877.00;;;;4937774;29;20253;-81
2021/12/12 01:03:36;;;;;;;7.97;5.03;;;-1.50;99.90;196.50;224877.00;;;;4938344;29;20681;-81
2021/12/12 01:06:07;;;;;;;7.60;4.23;;;-1.50;99.90;196.50;224877.00;;;;4938286;28;20285;-82
2021/12/12 01:08:36;;;;;;;9.67;4.57;;;-1.50;99.90;196.50;224877.00;;;;4941083;28;20289;-82
2021/12/12 01:11:33;;;;;;;8.60;4.57;;;-1.50;99.90;196.50;224877.00;;;;4929538;29;20290;-82
2021/12/12 01:14:07;;;;;;;10.10;3.97;;;-1.50;99.90;196.50;224877.00;;;;4921664;29;20662;-83
2021/12/12 01:16:52;;;;;;;11.33;4.73;;;-1.60;99.90;196.50;224877.00;;;;4954565;28;20229;-82
2021/12/12 01:19:50;;;;;;;12.63;4.37;;;-1.60;99.90;196.50;224877.00;;;;4937625;29;20219;-82
2021/12/12 01:22:28;;;;;;;12.60;5.27;;;-1.60;99.90;196.50;224877.00;;;;4934472;29;20204;-83
2021/12/12 01:25:00;;;;;;;11.00;5.00;;;-1.60;99.90;196.50;224877.00;;;;4937364;29;20194;-81
2021/12/12 01:27:27;;;;;;;6.43;4.90;;;-1.70;99.90;196.50;224877.00;;;;4937753;28;20195;-81
2021/12/12 01:29:55;;;;;;;13.83;5.47;;;-1.80;99.90;196.50;224877.00;;;;4937066;29;20674;-81
2021/12/12 01:32:28;;;;;;;13.53;5.87;;;-1.70;99.90;196.50;224877.00;;;;4937501;28;20289;-82
2021/12/12 01:34:58;;;;;;;13.00;5.03;;;-1.70;99.90;196.50;224877.00;;;;4937120;29;20203;-81
2021/12/12 01:37:37;;;;;;;19.33;5.60;;;-1.70;99.90;196.50;224877.00;;;;4953642;28;20710;-81
2021/12/12 01:40:25;;;;;;;13.70;5.53;;;-1.70;99.90;196.50;224877.00;;;;4921081;29;20191;-81
2021/12/12 01:43:10;;;;;;;12.37;5.73;;;-1.70;99.90;196.50;224877.00;;;;4937834;29;20693;-82
2021/12/12 01:45:48;;;;;;;11.13;5.33;;;-1.60;99.90;196.50;224877.00;;;;4935934;29;20287;-83
2021/12/12 01:48:41;;;;;;;14.43;5.10;;;-1.50;99.90;196.50;224877.00;;;;4937495;29;20202;-82
2021/12/12 01:51:11;;;;;;;11.93;5.13;;;-1.50;99.90;196.50;224877.00;;;;4936923;29;20203;-81
2021/12/12 01:53:43;;;;;;;14.07;4.70;;;-1.40;99.90;196.50;224877.00;;;;4936850;29;20196;-82
2021/12/12 01:56:18;;;;;;;8.30;4.80;;;-1.40;99.90;196.50;224877.00;;;;4933861;29;20200;-82
2021/12/12 01:58:53;;;;;;;10.40;4.60;;;-1.40;99.90;196.50;224877.00;;;;4903209;29;20323;-81
2021/12/12 02:01:37;;;;;;;9.63;4.70;;;-1.40;99.90;196.50;224877.00;;;;4937536;29;20242;-81
2021/12/12 02:04:15;;;;;;;8.87;4.90;;;-1.40;99.90;196.50;224877.00;;;;4937211;29;20205;-81
2021/12/12 02:06:49;;;;;;;9.43;3.93;;;-1.40;99.90;196.50;224877.00;;;;4937417;28;20666;-82
2021/12/12 02:09:18;;;;;;;6.30;4.10;;;-1.40;99.90;196.50;224877.00;;;;4921426;29;20190;-83
2021/12/12 02:11:48;;;;;;;5.50;4.20;;;-1.40;99.90;196.50;224877.00;;;;4952774;28;20250;-83
2021/12/12 02:14:20;;;;;;;12.60;4.20;;;-1.50;99.90;196.50;224877.00;;;;4920918;29;20230;-82
2021/12/12 02:17:04;;;;;;;8.47;4.07;;;-1.50;99.90;196.50;224877.00;;;;4937180;29;20261;-81
2021/12/12 02:19:48;;;;;;;6.97;3.97;;;-1.40;99.90;196.50;224877.00;;;;4936463;29;20216;-81
2021/12/12 02:35:56;;;;;;;7.37;4.17;;;-1.80;99.90;196.50;224877.00;;;;4953442;28;20749;-83
2021/12/12 02:38:29;;;;;;;9.83;4.63;;;-1.80;99.90;196.50;224877.00;;;;4921120;29;20277;-79
2021/12/12 02:41:07;;;;;;;10.50;5.13;;;-1.90;99.90;196.50;224877.00;;;;4953033;29;20601;-78
2021/12/12 02:43:43;;;;;;;9.00;4.53;;;-1.90;99.90;196.50;224877.00;;;;4936751;29;20559;-78
2021/12/12 02:46:16;;;;;;;6.50;3.80;;;-2.10;99.90;196.50;224877.00;;;;4937637;29;20238;-79
2021/12/12 02:48:47;;;;;;;11.23;4.60;;;-2.10;99.90;196.50;224877.00;;;;4938066;29;20203;-79
2021/12/12 02:51:18;;;;;;;9.30;4.53;;;-2.20;99.90;196.50;224877.00;;;;4921584;29;20207;-78
2021/12/12 02:53:54;;;;;;;13.03;4.37;;;-2.20;99.90;196.50;224877.00;;;;4937377;29;20195;-79
2021/12/12 02:56:37;;;;;;;8.30;4.20;;;-2.20;99.90;196.50;224877.00;;;;4937427;29;20242;-81
2021/12/12 02:59:18;;;;;;;6.97;4.13;;;-2.30;99.90;196.50;224877.00;;;;4940665;29;20214;-81
2021/12/12 03:02:14;;;;;;;7.83;4.50;;;-2.40;93.40;196.50;224877.00;;;;4939786;29;20561;-82
2021/12/12 03:04:41;;;;;;;13.93;4.50;;;-2.50;72.10;196.50;224877.00;;;;4940137;29;20205;-81
2021/12/12 03:07:11;;;;;;;9.97;4.37;;;-2.70;50.50;196.50;224877.00;;;;4940640;29;20191;-81
2021/12/12 03:09:56;;;;;;;7.30;4.00;;;-2.70;43.30;196.50;224877.00;;;;4940279;29;20207;-81
2021/12/12 03:12:33;;;;;;;10.87;4.40;;;-2.80;42.20;196.50;224877.00;;;;4939997;29;20194;-81
2021/12/12 03:15:18;;;;;;;8.83;4.40;;;-2.80;41.30;196.50;224877.00;;;;4940716;29;20194;-81
2021/12/12 03:17:49;;;;;;;8.27;4.50;;;-2.90;41.90;196.50;224877.00;;;;4939831;29;20682;-81
2021/12/12 03:20:41;;;;;;;13.80;5.23;;;-2.90;47.20;196.50;224877.00;;;;4940547;29;20706;-81
2021/12/12 03:23:35;;;;;;;10.73;4.97;;;-2.90;47.70;196.50;224877.00;;;;4923445;29;20659;-82
2021/12/12 03:26:10;;;;;;;10.63;5.13;;;-2.90;50.30;196.50;224877.00;;;;4940162;29;20234;-81
2021/12/12 03:28:44;;;;;;;10.67;5.20;;;-3.00;52.00;196.50;224877.00;;;;4940027;29;20657;-80
2021/12/12 03:31:27;;;;;;;10.80;4.60;;;-3.00;50.60;196.50;224877.00;;;;4940220;29;20260;-81
2021/12/12 03:33:55;;;;;;;11.00;5.57;;;-3.10;48.80;196.50;224877.00;;;;4923780;28;20187;-80
2021/12/12 03:36:23;;;;;;;19.73;5.50;;;-3.10;58.40;196.50;224877.00;;;;4940012;29;20199;-81
2021/12/12 03:39:04;;;;;;;12.23;5.40;;;-3.00;72.50;196.50;224877.00;;;;4939941;29;20304;-81
2021/12/12 03:41:35;;;;;;;8.43;4.30;;;-3.00;70.00;196.50;224877.00;;;;4939987;29;20678;-80
2021/12/12 03:44:08;;;;;;;16.10;4.50;;;-3.10;63.20;196.50;224877.00;;;;4956977;29;20659;-80
2021/12/12 03:46:37;;;;;;;10.23;4.93;;;-3.10;60.30;196.50;224877.00;;;;4923786;29;20612;-80
2021/12/12 03:49:06;;;;;;;12.27;5.30;;;-3.10;72.60;196.50;224877.00;;;;4956669;28;20194;-80
2021/12/12 03:51:36;;;;;;;13.40;4.70;;;-3.00;89.40;196.50;224877.00;;;;4956587;29;20338;-81
2021/12/12 03:54:04;;;;;;;10.63;5.07;;;-3.00;96.50;196.50;224877.00;;;;4952119;29;20988;-80
2021/12/12 03:56:32;;;;;;;10.77;5.10;;;-3.00;99.90;196.50;224877.00;;;;4941728;29;20611;-81
2021/12/12 03:59:02;;;;;;;13.67;5.70;;;-3.00;99.90;196.50;224877.00;;;;4955388;28;20709;-80
2021/12/12 04:01:39;;;;;;;9.23;4.93;;;-2.90;99.90;196.50;224877.00;;;;4923568;29;20190;-81
2021/12/12 04:04:23;;;;;;;10.90;4.90;;;-2.90;99.90;196.50;224877.00;;;;4939618;29;20209;-81
2021/12/12 04:06:52;;;;;;;13.00;4.83;;;-2.80;99.90;196.50;224877.00;;;;4939389;29;20563;-83
2021/12/12 04:09:20;;;;;;;10.43;4.87;;;-3.00;99.90;196.50;224877.00;;;;4923008;29;20206;-81
2021/12/12 04:11:55;;;;;;;11.63;5.13;;;-2.90;99.90;196.50;224877.00;;;;4938842;29;20195;-81
2021/12/12 04:14:24;;;;;;;10.90;5.23;;;-2.90;99.90;196.50;224877.00;;;;4923565;29;20209;-80
2021/12/12 04:17:06;;;;;;;14.00;5.63;;;-2.90;99.90;196.50;224877.00;;;;4938961;29;20196;-81
2021/12/12 04:19:34;;;;;;;6.90;4.63;;;-2.90;99.90;196.50;224877.00;;;;4939524;29;20814;-80
2021/12/12 04:22:03;;;;;;;11.03;4.80;;;-2.80;99.90;196.50;224877.00;;;;4954648;28;20274;-81
2021/12/12 04:24:35;;;;;;;14.00;5.40;;;-2.80;99.90;196.50;224877.00;;;;4938719;29;20196;-80
2021/12/12 04:27:06;;;;;;;10.73;5.10;;;-2.80;99.90;196.50;224877.00;;;;4923039;29;20270;-80
2021/12/12 04:29:40;;;;;;;8.13;4.60;;;-2.80;99.90;196.50;224877.00;;;;4939018;29;20294;-80
2021/12/12 04:32:25;;;;;;;10.23;4.47;;;-3.00;99.90;196.50;224877.00;;;;4938886;29;20221;-80
2021/12/12 04:34:57;;;;;;;8.40;4.73;;;-3.10;99.90;196.50;224877.00;;;;4939013;29;20230;-81
2021/12/12 04:37:26;;;;;;;10.20;5.00;;;-3.10;99.90;196.50;224877.00;;;;4938447;29;20244;-80
2021/12/12 04:39:58;;;;;;;9.83;4.57;;;-3.10;99.90;196.50;224877.00;;;;4954594;29;20649;-81
2021/12/12 04:42:36;;;;;;;11.03;5.27;;;-3.10;99.90;196.50;224877.00;;;;4922572;28;20198;-80
2021/12/12 04:45:37;;;;;;;12.63;5.67;;;-3.10;99.90;196.50;224877.00;;;;4923146;29;20242;-80
2021/12/12 04:51:23;;;;;;;10.63;4.97;;;-3.10;99.90;196.50;224877.00;;;;4955655;28;20734;-80
2021/12/12 04:54:11;;;;;;;10.43;4.30;;;-3.00;99.90;196.50;224877.00;;;;4922141;29;20594;-80
2021/12/12 04:56:47;;;;;;;8.93;5.07;;;-2.90;99.90;196.50;224877.00;;;;4922174;29;20195;-80
2021/12/12 04:59:24;;;;;;;9.97;4.93;;;-2.90;99.90;196.50;224877.00;;;;4938899;29;20693;-82
2021/12/12 05:02:21;;;;;;;9.60;4.57;;;-2.80;99.90;196.50;224877.00;;;;4937998;28;20209;-80
2021/12/12 05:05:15;;;;;;;8.97;4.53;;;-2.70;99.90;196.50;224877.00;;;;4954286;28;20669;-80
2021/12/12 05:07:52;;;;;;;11.53;4.70;;;-2.60;99.90;196.50;224877.00;;;;4954003;29;20186;-80
2021/12/12 05:10:37;;;;;;;8.13;4.30;;;-2.70;99.90;196.50;224877.00;;;;4922857;29;20729;-81
2021/12/12 05:13:17;;;;;;;11.77;4.83;;;-2.60;99.90;196.50;224877.00;;;;4922611;29;20568;-80
2021/12/12 05:15:49;;;;;;;9.67;4.97;;;-2.50;99.90;196.50;224877.00;;;;4954221;29;20214;-80
2021/12/12 05:18:29;;;;;;;8.53;4.27;;;-2.50;99.90;196.50;224877.00;;;;4938381;29;20278;-80
2021/12/12 05:21:08;;;;;;;10.87;5.43;;;-2.50;99.90;196.50;224877.00;;;;4922832;29;20197;-81
2021/12/12 05:23:40;;;;;;;12.70;5.30;;;-2.60;99.90;196.50;224877.00;;;;4918368;29;20193;-84
2021/12/12 05:26:17;;;;;;;13.57;5.57;;;-2.60;99.90;196.50;224877.00;;;;4952207;29;20654;-85
2021/12/12 05:28:50;;;;;;;10.93;5.27;;;-2.60;99.90;196.50;224877.00;;;;4954640;28;20195;-80
2021/12/12 05:31:21;;;;;;;15.10;6.10;;;-2.50;99.90;196.50;224877.00;;;;4955203;29;20209;-79
2021/12/12 05:33:54;;;;;;;8.33;4.93;;;-2.40;99.90;196.50;224877.00;;;;4937542;29;20227;-79
2021/12/12 05:36:23;;;;;;;8.83;5.13;;;-2.40;99.90;196.50;224877.00;;;;4937663;29;20202;-83
2021/12/12 05:38:51;;;;;;;11.20;4.87;;;-2.40;99.90;196.50;224877.00;;;;4937622;29;20257;-80
2021/12/12 05:41:21;;;;;;;7.60;5.03;;;-2.40;99.90;196.50;224877.00;;;;4937869;29;20658;-80
2021/12/12 05:43:53;;;;;;;10.70;4.93;;;-2.40;99.90;196.50;224877.00;;;;4937489;29;20257;-83
2021/12/12 05:46:23;;;;;;;11.13;5.87;;;-2.40;99.90;196.50;224877.00;;;;4937051;29;20657;-79
2021/12/12 05:48:53;;;;;;;11.67;5.40;;;-2.40;99.90;196.50;224877.00;;;;4937641;29;20670;-80
2021/12/12 05:51:22;;;;;;;9.03;5.83;;;-2.40;99.90;196.50;224877.00;;;;4921916;29;20288;-79
2021/12/12 05:53:53;;;;;;;10.57;5.27;;;-2.50;99.90;196.50;224877.00;;;;4937419;29;20185;-79
2021/12/12 05:56:29;;;;;;;8.57;5.33;;;-2.40;95.70;196.50;224877.00;;;;4921154;29;20535;-82
2021/12/12 05:58:57;;;;;;;10.13;4.77;;;-2.50;81.90;196.50;224877.00;;;;4937105;29;20270;-81
2021/12/12 06:01:28;;;;;;;9.33;5.27;;;-2.50;67.40;196.50;224877.00;;;;4937156;29;20661;-79
2021/12/12 06:03:56;;;;;;;9.03;5.43;;;-2.50;62.40;196.50;224877.00;;;;4954146;29;20191;-79
2021/12/12 06:06:35;;;;;;;9.77;5.23;;;-2.40;52.70;196.50;224877.00;;;;4952268;29;20682;-82
2021/12/12 06:09:09;;;;;;;7.63;4.70;;;-2.40;46.00;196.50;224877.00;;;;4952194;29;20233;-79
2021/12/12 06:11:42;;;;;;;8.70;6.03;;;-2.40;42.80;196.50;224877.00;;;;4937800;29;20194;-82
2021/12/12 06:14:10;;;;;;;10.50;5.20;;;-2.40;34.70;196.50;224877.00;;;;4935379;29;20205;-79
2021/12/12 06:16:39;;;;;;;9.77;5.50;;;-2.30;26.50;196.50;224877.00;;;;4922660;29;20666;-79
2021/12/12 06:19:17;;;;;;;10.60;5.07;;;-2.40;12.00;196.50;224877.00;;;;4937123;29;20241;-79
2021/12/12 06:21:48;;;;;;;10.87;5.27;;;-2.40;2.90;196.50;224877.00;;;;4937191;29;20245;-79
2021/12/12 06:24:16;;;;;;;7.93;4.53;;;-2.40;1.00;196.50;224877.00;;;;4936933;29;20189;-79
2021/12/12 06:26:43;;;;;;;9.17;4.83;;;-2.40;1.00;196.50;224877.00;;;;4920895;28;20187;-79
2021/12/12 06:29:10;;;;;;;8.07;4.50;;;-2.40;1.00;196.50;224877.00;;;;4921031;29;20194;-79
2021/12/12 06:31:45;;;;;;;7.87;5.17;;;-2.40;1.00;196.50;224877.00;;;;4922452;29;20748;-80
2021/12/12 06:34:14;;;;;;;8.03;5.00;;;-2.40;1.00;196.50;224877.00;;;;4926642;28;20666;-79
2021/12/12 06:36:43;;;;;;;10.60;4.80;;;-2.40;1.00;196.50;224877.00;;;;5309106;23;20223;-80
2021/12/12 06:39:14;;;;;;;9.63;4.67;;;-2.30;1.00;196.50;224877.00;;;;4906107;29;20208;-79
2021/12/12 06:41:42;;;;;;;9.17;5.13;;;-2.30;1.00;196.50;224877.00;;;;4904707;29;20214;-79
2021/12/12 06:44:11;;;;;;;8.00;4.90;;;-2.30;1.00;196.50;224877.00;;;;4919631;29;20210;-80
2021/12/12 06:46:42;;;;;;;7.77;4.83;;;-2.40;1.00;196.50;224877.00;;;;4921036;29;20266;-79
2021/12/12 06:49:16;;;;;;;7.40;4.33;;;-2.40;1.00;196.50;224877.00;;;;4905408;29;20194;-81
2021/12/12 06:51:53;;;;;;;7.87;5.03;;;-2.40;1.00;196.50;224877.00;;;;4936833;29;20686;-81
2021/12/12 06:54:24;;;;;;;6.50;4.60;;;-2.40;1.00;196.50;224877.00;;;;4921279;29;20594;-80
2021/12/12 06:56:56;;;;;;;9.17;4.80;;;-2.40;1.00;196.50;224877.00;;;;4917498;29;20545;-79
2021/12/12 06:59:28;;;;;;;11.40;4.77;;;-2.40;1.00;196.50;224877.00;;;;4923704;29;20708;-80
2021/12/12 07:01:56;;;;;;;6.03;3.80;;;-2.50;1.00;196.50;224877.00;;;;4902277;29;20220;-80
2021/12/12 07:04:27;;;;;;;8.50;4.77;;;-2.50;1.00;196.50;224877.00;;;;4921403;29;20263;-80
2021/12/12 07:06:58;;;;;;;9.27;4.70;;;-2.50;1.00;196.50;224877.00;;;;4905540;29;20201;-80
2021/12/12 07:09:30;;;;;;;5.90;4.03;;;-2.50;1.00;196.50;224877.00;;;;4921093;29;20195;-80
2021/12/12 07:12:02;;;;;;;6.40;4.33;;;-2.50;1.00;196.50;224877.00;;;;4905334;29;20663;-79
2021/12/12 07:14:31;;;;;;;7.90;4.43;;;-2.50;1.00;196.50;224877.00;;;;4921171;29;20663;-79
2021/12/12 07:16:58;;;;;;;10.07;4.03;;;-2.50;1.00;196.50;224877.00;;;;4936832;29;20192;-79
2021/12/12 07:19:26;;;;;;;5.87;3.70;;;-2.50;1.00;196.50;224877.00;;;;4920551;29;20746;-80
2021/12/12 07:21:54;;;;;;;10.00;4.27;;;-2.50;1.00;196.50;224877.00;;;;4934993;29;20259;-79
2021/12/12 07:24:23;;;;;;;5.57;4.00;;;-2.40;1.00;196.50;224877.00;;;;4922076;29;20196;-79
2021/12/12 07:26:50;;;;;;;6.40;4.33;;;-2.40;1.00;196.50;224877.00;;;;4920298;29;20248;-79
2021/12/12 07:29:17;;;;;;;7.07;4.30;;;-2.30;1.00;196.50;224877.00;;;;4920798;29;20291;-79
2021/12/12 07:31:45;;;;;;;5.80;3.47;;;-2.30;1.00;196.50;224877.00;;;;4921033;29;20279;-78
2021/12/12 07:34:16;;;;;;;8.03;3.43;;;-2.30;1.00;196.50;224877.00;;;;4920320;29;20206;-79
2021/12/12 07:36:51;;;;;;;6.80;3.77;;;-2.20;1.00;196.50;224877.00;;;;4921791;29;20232;-79
2021/12/12 07:39:22;;;;;;;4.10;2.80;;;-2.10;1.00;196.50;224877.00;;;;4919109;29;20242;-79
2021/12/12 07:41:52;;;;;;;4.17;2.73;;;-1.90;1.00;196.50;224877.00;;;;4910752;29;20227;-80
2021/12/12 07:44:26;;;;;;;5.70;3.00;;;-1.80;1.00;196.50;224877.00;;;;4903153;29;20741;-80
2021/12/12 07:46:54;;;;;;;3.10;2.37;;;-1.70;1.00;196.50;224877.00;;;;4917348;29;20280;-80
2021/12/12 07:49:25;;;;;;;7.00;2.63;;;-1.60;1.00;196.50;224877.00;;;;4918589;29;20203;-80
2021/12/12 07:51:53;;;;;;;4.17;2.77;;;-1.50;1.00;196.50;224877.00;;;;4917546;29;20235;-81
2021/12/12 07:54:21;;;;;;;10.77;3.07;;;-1.40;1.00;196.50;224877.00;;;;4917995;29;20191;-80
2021/12/12 07:56:48;;;;;;;10.30;2.87;;;-1.40;1.00;196.50;224877.00;;;;4918545;29;20200;-81
2021/12/12 07:59:18;;;;;;;4.30;2.50;;;-1.40;1.00;196.50;224877.00;;;;4914148;29;20947;-80
2021/12/12 08:01:49;;;;;;;5.03;2.03;;;-1.40;99.90;196.50;224877.00;;;;4899820;29;20608;-80
2021/12/12 08:04:21;;;;;;;2.27;1.83;;;-1.40;99.90;196.50;224877.00;;;;4926427;29;20561;-79
2021/12/12 08:06:49;;;;;;;2.10;1.80;;;-1.40;99.90;196.50;224877.00;;;;4917407;29;20193;-80
2021/12/12 08:09:17;;;;;;;3.20;2.13;;;-1.40;99.90;196.50;224877.00;;;;4916845;29;20500;-80
2021/12/12 08:11:49;;;;;;;46.07;25.13;;;-1.30;99.90;196.50;224877.00;;;;4917196;29;20274;-81
2021/12/12 08:14:28;;;;;;;3.13;1.77;;;-1.10;84.10;196.50;224877.00;;;;4916534;29;20201;-81
2021/12/12 08:16:56;;;;;;;2.10;1.67;;;-0.90;41.90;196.50;224877.00;;;;4915599;29;20200;-81
2021/12/12 08:19:26;;;;;;;4.47;2.37;;;-0.80;1.00;196.50;224877.00;;;;4915464;29;20216;-80
2021/12/12 08:22:00;;;;;;;2.13;1.40;;;-0.70;1.00;196.50;224877.00;;;;4917088;29;20199;-80
2021/12/12 08:24:29;;;;;;;3.10;1.60;;;-0.60;1.00;196.50;224877.00;;;;4902325;29;20667;-81
2021/12/12 08:26:58;;;;;;;2.27;1.43;;;-0.50;1.00;196.50;224877.00;;;;4913974;29;20238;-81
2021/12/12 08:29:27;;;;;;;1.80;1.30;;;-0.40;1.00;196.50;224877.00;;;;4899115;29;20272;-80
2021/12/12 08:31:55;;;;;;;2.07;1.27;;;-0.30;1.00;196.50;224877.00;;;;4925895;29;20245;-80
2021/12/12 08:34:25;;;;;;;4.00;1.30;;;-0.30;1.00;196.50;224877.00;;;;4917390;29;20602;-80
2021/12/12 08:36:55;;;;;;;3.90;1.60;;;-0.20;1.00;196.50;224877.00;;;;4913855;29;20225;-80
2021/12/12 08:39:23;;;;;;;3.60;1.63;;;-0.10;1.00;196.50;224877.00;;;;4916666;29;20217;-80
2021/12/12 08:41:51;;;;;;;3.63;1.43;;;0.00;1.00;196.50;224877.00;;;;4897968;29;20208;-77
2021/12/12 08:44:19;;;;;;;2.17;1.20;;;0.10;99.90;196.50;224877.00;;;;4904639;29;20283;-78
2021/12/12 08:46:50;;;;;;;2.50;1.30;;;0.30;99.90;196.50;224877.00;;;;4896677;29;20208;-79
2021/12/12 08:49:24;;;;;;;2.60;1.00;;;0.60;99.90;196.50;224877.00;;;;4922527;29;20205;-79
2021/12/12 08:52:12;;;;;;;2.63;0.90;;;0.70;99.90;196.50;224877.00;;;;4897782;29;20244;-78
2021/12/12 08:54:43;;;;;;;3.00;1.20;;;0.80;33.10;196.50;224877.00;;;;4905396;29;20197;-82
2021/12/12 08:57:31;;;;;;;1.07;0.83;;;1.00;1.00;196.50;224877.00;;;;4911431;29;20193;-78
2021/12/12 09:00:22;;;;;;;2.60;1.20;;;1.10;1.00;196.50;224877.00;;;;4915922;29;20259;-78
2021/12/12 09:02:52;;;;;;;2.73;1.10;;;1.40;1.00;196.50;224877.00;;;;4904162;29;20197;-79
2021/12/12 09:05:36;;;;;;;0.83;0.83;;;1.80;1.00;196.50;224877.00;;;;4898200;29;20554;-80
2021/12/12 09:08:52;;;;;;;1.67;0.70;;;2.10;1.00;196.50;224877.00;;;;4898111;29;20679;-80
2021/12/12 09:11:30;;;;;;;4.43;1.10;;;2.20;1.00;196.50;224877.00;;;;4898060;29;20269;-80
2021/12/12 09:14:20;;;;;;;2.63;1.13;;;2.20;1.00;196.50;224877.00;;;;4883973;29;20651;-82
2021/12/12 09:17:14;;;;;;;1.80;1.00;;;2.00;1.00;196.50;224877.00;;;;4916766;29;20200;-81
2021/12/12 09:20:14;;;;;;;1.80;1.40;;;1.90;1.00;196.50;224877.00;;;;4916807;29;20217;-80
2021/12/12 09:22:59;;;;;;;1.60;1.30;;;1.90;1.00;196.50;224877.00;;;;4911201;29;20553;-80
2021/12/12 09:25:37;;;;;;;3.83;1.03;;;1.90;1.00;196.50;224877.00;;;;4905342;29;20203;-82
2021/12/12 09:28:30;;;;;;;1.30;0.90;;;1.90;1.00;196.50;224877.00;;;;4913744;29;20196;-81
2021/12/12 09:31:19;;;;;;;2.00;1.00;;;1.90;17.60;196.50;224877.00;;;;4910892;29;20244;-83
2021/12/12 09:34:04;;;;;;;2.13;1.23;;;2.10;99.90;196.50;224877.00;;;;4900314;29;20751;-80
2021/12/12 09:36:46;;;;;;;1.50;1.20;;;2.10;59.40;196.50;224877.00;;;;4910621;29;20228;-81
2021/12/12 09:39:24;;;;;;;2.53;1.20;;;2.20;75.10;196.50;224877.00;;;;4897087;29;20676;-82
2021/12/12 09:42:27;;;;;;;2.13;1.00;;;2.30;99.90;196.50;224877.00;;;;4912828;29;20283;-84
2021/12/12 09:45:29;;;;;;;2.80;1.13;;;2.40;99.90;196.50;224877.00;;;;4911821;29;20211;-83
2021/12/12 09:52:02;;;;;;;2.33;1.07;;;2.40;66.90;196.50;224877.00;;;;4913554;29;20205;-82
2021/12/12 09:55:09;;;;;;;1.67;0.90;;;2.50;98.70;196.50;224877.00;;;;4897208;29;20210;-82
2021/12/12 09:58:02;;;;;;;2.77;0.97;;;2.60;99.90;196.50;224877.00;;;;4911776;29;20212;-81
2021/12/12 10:00:43;;;;;;;4.40;1.30;;;2.70;99.90;196.50;224877.00;;;;4914934;29;20287;-83
2021/12/12 10:03:13;;;;;;;2.27;1.20;;;2.70;24.70;196.50;224877.00;;;;4913346;29;20235;-81
2021/12/12 10:05:59;;;;;;;2.23;1.40;;;2.70;50.00;196.50;224877.00;;;;4913755;29;20189;-81
2021/12/12 10:09:15;;;;;;;4.10;1.20;;;2.60;46.20;196.50;224877.00;;;;4912483;29;20204;-84
2021/12/12 10:12:18;;;;;;;2.73;1.80;;;2.60;17.50;196.50;224877.00;;;;4889807;29;20288;-82
2021/12/12 10:15:13;;;;;;;2.43;1.60;;;2.60;1.00;196.50;224877.00;;;;4912260;29;20192;-83
2021/12/12 10:18:00;;;;;;;4.53;2.50;;;2.60;90.20;196.50;224877.00;;;;4914396;29;20204;-85
2021/12/12 10:20:47;;;;;;;3.33;1.53;;;2.70;99.90;196.50;224877.00;;;;4915485;29;20690;-82
2021/12/12 10:23:26;;;;;;;3.33;2.03;;;2.70;51.20;196.50;224877.00;;;;4913620;29;20283;-84
2021/12/12 10:26:07;;;;;;;6.87;4.03;;;2.60;31.20;196.50;224877.00;;;;4901876;29;20197;-83
2021/12/12 10:28:51;;;;;;;10.07;4.57;;;2.70;51.50;196.50;224877.00;;;;4930362;29;20204;-84
2021/12/12 10:31:46;;;;;;;10.37;5.00;;;2.70;47.10;196.50;224877.00;;;;4905042;29;20193;-82
2021/12/12 10:34:31;;;;;;;10.50;7.40;;;2.70;1.00;196.50;224877.00;;;;4899573;29;20211;-84
2021/12/12 10:37:07;;;;;;;5.07;4.07;;;2.80;41.50;196.50;224877.00;;;;4899917;29;20243;-84
2021/12/12 10:39:40;;;;;;;6.10;5.50;;;2.80;24.00;196.50;224877.00;;;;4901098;29;20319;-85
2021/12/12 10:42:23;;;;;;;5.67;4.17;;;2.90;99.90;196.50;224877.00;;;;4896940;29;20196;-87
2021/12/12 10:45:16;;;;;;;5.03;4.50;;;2.90;46.20;196.50;224877.00;;;;4879387;29;20711;-85
2021/12/12 10:48:24;;;;;;;8.43;7.57;;;3.00;60.60;196.50;224877.00;;;;4897982;29;20200;-84
2021/12/12 10:51:00;;;;;;;10.73;6.40;;;3.00;18.10;196.50;224877.00;;;;4928103;29;20319;-85
2021/12/12 10:53:49;;;;;;;16.83;11.43;;;2.90;1.00;196.50;224877.00;;;;4887356;29;20292;-87
2021/12/12 10:56:41;;;;;;;8.53;6.53;;;2.80;50.50;196.50;224877.00;;;;4884085;29;20542;-87
2021/12/12 10:59:39;;;;;;;12.37;9.30;;;2.80;99.90;196.50;224877.00;;;;4908109;29;20664;-85
2021/12/12 11:02:13;;;;;;;9.80;4.77;;;2.70;99.90;196.50;224877.00;;;;4915079;29;20196;-87
2021/12/12 11:04:52;;;;;;;4.93;2.37;;;2.70;99.90;196.50;224877.00;;;;4900162;29;20239;-87
2021/12/12 11:07:32;;;;;;;6.33;2.87;;;2.70;99.90;196.50;224877.00;;;;4916580;29;20295;-89
2021/12/12 11:10:18;;;;;;;3.43;1.60;;;2.60;99.90;196.50;224877.00;;;;4900909;29;20549;-85
2021/12/12 11:13:01;;;;;;;5.63;1.83;;;2.60;99.90;196.50;224877.00;;;;4913958;29;20644;-88
2021/12/12 11:15:40;;;;;;;4.20;2.30;;;2.70;99.90;196.50;224877.00;;;;4901888;29;20264;-89
2021/12/12 11:18:16;;;;;;;5.00;1.90;;;2.70;99.90;196.50;224877.00;;;;4897473;29;20204;-89
2021/12/12 11:20:54;;;;;;;6.60;2.50;;;2.80;99.90;196.50;224877.00;;;;4914375;29;20224;-89
2021/12/12 11:23:38;;;;;;;24.83;16.17;;;2.80;99.90;196.50;224877.00;;;;4902546;29;20256;-88
2021/12/12 11:26:34;;;;;;;4.47;2.27;;;2.70;99.90;196.50;224877.00;;;;4887139;29;20271;-90
2021/12/12 11:29:12;;;;;;;5.23;2.80;;;2.70;99.90;196.50;224877.00;;;;4904113;29;20197;-90
2021/12/12 11:32:00;;;;;;;5.00;2.20;;;2.70;99.90;196.50;224877.00;;;;4918570;29;20512;-90
2021/12/12 11:34:46;;;;;;;7.90;4.87;;;2.70;99.90;196.50;224877.00;;;;4892624;29;20181;-90
2021/12/12 11:37:23;;;;;;;7.57;5.20;;;2.70;99.90;196.50;224877.00;;;;4933798;29;20257;-92
2021/12/12 11:40:13;;;;;;;3.33;2.50;;;2.80;99.90;196.50;224877.00;;;;4908478;29;20234;-92
2021/12/12 11:42:56;;;;;;;4.93;2.23;;;2.90;99.90;196.50;224877.00;;;;5154208;23;20227;-91